Tuesday, January 16, 2018, 11:54 AM GMT
Back to Local

CYSJ, Saint John, N. B.

Location: , , Canada Lat: 45.333
Local Time: 11:54 AM GMT (11:54 GMT) Lon: -65.883
Time Zone: GMT Elev: 337 ft

Show me the last for .
Show Decoded

2018-01-16 11:41 METAR CYSJ 161141Z 34008KT 2 1/2SM -FZDZ -SN OVC006 M09/M10 A3041 RMK SC8 SLP309
                 =
2018-01-16 11:32 METAR CYSJ 161132Z 34007KT 5SM -FZDZ -SN OVC007 M09/M10 A3041 RMK SC8 PRESFR
                 SLP309 =
2018-01-16 11:00 METAR CYSJ 161100Z 34009KT 5SM -SN OVC007 M08/M10 A3040 RMK SC8 PRESRR SLP306 =
2018-01-16 10:23 METAR CYSJ 161023Z 01008KT 5SM -FZDZ -SN BKN006 OVC035 M09/M10 A3039 RMK SC7SC1
                 SLP301
2018-01-16 10:00 METAR CYSJ 161000Z 36009KT 5SM -SN BKN006 OVC035 M09/M10 A3040 RMK SC7SC1 SLP304
                 =
2018-01-16 09:00 METAR CYSJ 160900Z 02012KT 5SM -SN BKN009 OVC035 M08/M09 A3038 RMK SC7SC1 SLP298
                 =
2018-01-16 08:00 METAR CYSJ 160800Z 01012KT 5SM -SN OVC008 M08/M09 A3043 RMK SC8 SLP313 =
2018-01-16 07:00 METAR CYSJ 160700Z 03014KT 4SM -SN BKN008 OVC040 M08/M09 A3043 RMK SC7SC1 SLP313
                 =
2018-01-16 06:00 METAR CYSJ 160600Z 36011G16KT 8SM -SN BKN009 OVC045 M08/M10 A3044 RMK SC6SC2
                 SLP319 =
2018-01-16 05:00 METAR CYSJ 160500Z 03012G19KT 15SM -SN BKN012 BKN053 OVC086 M08/M10 A3045 RMK
                 SC5SC1AC2 SLP322 =
2018-01-16 04:00 METAR CYSJ 160400Z 03014KT 15SM -SN BKN015 OVC100 M08/M10 A3047 RMK SC6AC2
                 SLP329 =
2018-01-16 03:00 METAR CYSJ 160300Z 03015G20KT 15SM -SN BKN016 OVC130 M08/M11 A3049 RMK SC5AC3
                 SLP334 =
2018-01-16 02:00 METAR CYSJ 160200Z 03010KT 10SM -SN SCT020 BKN120 M09/M11 A3054 RMK SC3AC4
                 SLP352 =
2018-01-16 01:00 METAR CYSJ 160100Z 03010G16KT 10SM -SN FEW025 BKN140 M09/M11 A3058 RMK SC2AC5
                 SLP367 =
2018-01-16 00:51 METAR CYSJ 160051Z 04009G16KT 10SM -SN FEW025 BKN150 M09/M11 A3059 RMK SC2AC5
                 SLP371 =
2018-01-16 00:00 METAR CYSJ 160000Z 03010KT 10SM FEW025 BKN160 M09/M11 A3060 RMK SC2AC5 PRESFR
                 SLP373 =
2018-01-15 23:12 METAR CYSJ 152312Z 05009KT 10SM SCT025 BKN190 M09/M11 A3064 RMK SC3CI4 SLP388 =
2018-01-15 23:00 METAR CYSJ 152300Z 05009KT 8SM -SN BKN024 BKN190 M09/M11 A3064 RMK SC5CI2 PRESRR
                 SLP386 =
2018-01-15 22:00 METAR CYSJ 152200Z 04010KT 6SM -SN BKN024 M09/M11 A3064 RMK SC7 PRESFR SLP388 =
2018-01-15 21:00 METAR CYSJ 152100Z 05015KT 6SM -SN OVC024 M08/M11 A3066 RMK SC8 SLP394 =
2018-01-15 20:00 METAR CYSJ 152000Z 03013KT 6SM -SN OVC022 M07/M10 A3066 RMK SC8 SLP393 =
2018-01-15 19:00 METAR CYSJ 151900Z 02012KT 5SM -SN OVC023 M07/M10 A3067 RMK SC8 SLP397 =
2018-01-15 18:00 METAR CYSJ 151800Z 02014KT 4SM -SN OVC022 M08/M10 A3068 RMK SC8 PRESFR SLP400 =
2018-01-15 17:00 METAR CYSJ 151700Z 02013KT 5SM -SN BKN023 M08/M11 A3072 RMK SC7 PRESFR SLP413 =
2018-01-15 16:00 METAR CYSJ 151600Z 01014KT 6SM -SN BKN022 BKN160 M09/M12 A3075 RMK SC5AC2 SLP424
                 =
2018-01-15 15:49 METAR CYSJ 151549Z 01013KT 8SM -SN BKN022 BKN160 M09/M12 A3076 RMK SC5AC2 PRESFR
                 SLP427 =
2018-01-15 15:00 METAR CYSJ 151500Z 01010KT 15SM SCT023 BKN160 BKN200 M11/M14 A3080 RMK SC3AC2CI2
                 SLP441 =
2018-01-15 14:00 METAR CYSJ 151400Z 02009G15KT 15SM SCT025 BKN160 M12/M15 A3080 RMK SC4AC3 SLP440
                 =
2018-01-15 13:36 METAR CYSJ 151336Z 02007KT 12SM BKN024 BKN140 M13/M15 A3080 RMK SC5AC2 SLP441 =
2018-01-15 13:00 METAR CYSJ 151300Z 02010KT 12SM -SN OVC024 M14/M16 A3080 RMK SC8 SLP442 =
2018-01-15 12:00 METAR CYSJ 151200Z 01009KT 15SM -SN OVC024 M15/M17 A3079 RMK SC8 SLP438 =

Support USWX by starting your Amazon purchase here.